| time (UTC) | temp F | wind direction | speed MPH | gust MPH | rain 1hr in | rain 24hr in | rain mn in | humidity % | barometer mb |
| 20260504081840 | 59 | 188 | 2.0 | 2.0 | 0.00 | 0.00 | 0.00 | 61 | 1013.2 |
| 20260504081337 | 59 | 162 | 1.0 | 2.0 | 0.00 | 0.00 | 0.00 | 61 | 1012.9 |
| 20260504080833 | 59 | 162 | 3.0 | 5.0 | 0.00 | 0.00 | 0.00 | 61 | 1013.0 |
| 20260504080330 | 59 | 155 | 2.0 | 2.0 | 0.00 | 0.00 | 0.00 | 61 | 1012.8 |
| 20260504070258 | 60 | 168 | 4.0 | 6.0 | 0.00 | 0.00 | 0.00 | 57 | 1012.9 |
| 20260504060218 | 61 | 192 | 2.0 | 3.0 | 0.00 | 0.00 | 0.00 | 55 | 1013.4 |
| 20260504050646 | 58 | 161 | 3.0 | 3.0 | 0.00 | 0.00 | 0.00 | 63 | 1014.1 |
| 20260504050143 | 57 | 181 | 1.0 | 1.0 | 0.00 | 0.00 | 0.00 | 63 | 1014.2 |
| 20260504045640 | 57 | 198 | 0.0 | 1.0 | 0.00 | 0.00 | 0.00 | 64 | 1014.2 |
| 20260504045140 | 58 | 188 | 1.0 | 1.0 | 0.00 | 0.00 | 0.00 | 63 | 1014.4 |
| 20260504044638 | 58 | 185 | 1.0 | 2.0 | 0.00 | 0.00 | 0.00 | 63 | 1014.0 |
| 20260504044135 | 58 | 131 | 2.0 | 3.0 | 0.00 | 0.00 | 0.00 | 62 | 1014.3 |
| 20260504043632 | 58 | 184 | 0.0 | 1.0 | 0.00 | 0.00 | 0.00 | 62 | 1014.2 |
| 20260504043129 | 58 | 151 | 2.0 | 2.0 | 0.00 | 0.00 | 0.00 | 61 | 1014.3 |
| 20260504042626 | 59 | 137 | 2.0 | 2.0 | 0.00 | 0.00 | 0.00 | 61 | 1014.5 |
| 20260504042123 | 59 | 197 | 1.0 | 1.0 | 0.00 | 0.00 | 0.00 | 60 | 1014.5 |
| 20260504041618 | 59 | 141 | 1.0 | 1.0 | 0.00 | 0.00 | 0.00 | 59 | 1014.7 |
| 20260504041115 | 59 | 163 | 1.0 | 1.0 | 0.00 | 0.00 | 0.00 | 59 | 1014.6 |
| 20260504040612 | 59 | 176 | 2.0 | 2.0 | 0.00 | 0.00 | 0.00 | 59 | 1014.6 |
| 20260504040109 | 60 | 167 | 0.0 | 1.0 | 0.00 | 0.00 | 0.00 | 58 | 1014.5 |
| 20260504035606 | 60 | 200 | 4.0 | 7.0 | 0.00 | 0.00 | 0.00 | 57 | 1014.6 |
| 20260504035102 | 60 | 188 | 1.0 | 1.0 | 0.00 | 0.00 | 0.00 | 57 | 1014.8 |
| 20260504034600 | 60 | 84 | 2.0 | 3.0 | 0.00 | 0.00 | 0.00 | 57 | 1014.7 |
| 20260504034057 | 60 | 175 | 1.0 | 1.0 | 0.00 | 0.00 | 0.00 | 57 | 1014.5 |
| 20260504033555 | 60 | 158 | 2.0 | 3.0 | 0.00 | 0.00 | 0.00 | 56 | 1014.9 |
| 20260504033052 | 60 | 189 | 1.0 | 1.0 | 0.00 | 0.00 | 0.00 | 57 | 1014.9 |
| 20260504032549 | 60 | 200 | 1.0 | 1.0 | 0.00 | 0.00 | 0.00 | 58 | 1014.8 |
| 20260504032045 | 60 | 189 | 0.0 | 1.0 | 0.00 | 0.00 | 0.00 | 57 | 1015.1 |
| 20260504031542 | 60 | 183 | 1.0 | 1.0 | 0.00 | 0.00 | 0.00 | 57 | 1015.1 |
| 20260504031038 | 60 | 169 | 0.0 | 1.0 | 0.00 | 0.00 | 0.00 | 56 | 1015.3 |
| 20260504030536 | 60 | 172 | 1.0 | 2.0 | 0.00 | 0.00 | 0.00 | 56 | 1015.3 |
| 20260504030032 | 60 | 171 | 1.0 | 2.0 | 0.00 | 0.00 | 0.00 | 56 | 1015.3 |
| 20260504025529 | 60 | 138 | 1.0 | 2.0 | 0.00 | 0.00 | 0.00 | 56 | 1015.3 |
| 20260504025026 | 60 | 190 | 1.0 | 1.0 | 0.00 | 0.00 | 0.00 | 56 | 1015.2 |
| 20260504024523 | 60 | 179 | 1.0 | 1.0 | 0.00 | 0.00 | 0.00 | 56 | 1015.4 |
| 20260504024020 | 60 | 163 | 1.0 | 2.0 | 0.00 | 0.00 | 0.00 | 56 | 1015.2 |
| 20260504023517 | 60 | 183 | 0.0 | 1.0 | 0.00 | 0.00 | 0.00 | 56 | 1015.3 |
| 20260504023012 | 60 | 127 | 0.0 | 1.0 | 0.00 | 0.00 | 0.00 | 56 | 1015.3 |
| 20260504022508 | 60 | 178 | 0.0 | 1.0 | 0.00 | 0.00 | 0.00 | 55 | 1015.3 |
| 20260504022005 | 61 | 187 | 1.0 | 1.0 | 0.00 | 0.00 | 0.00 | 55 | 1015.4 |
| 20260504021503 | 61 | 177 | 0.0 | 0.0 | 0.00 | 0.00 | 0.00 | 55 | 1015.4 |
| 20260504020959 | 61 | 167 | 1.0 | 1.0 | 0.00 | 0.00 | 0.00 | 54 | 1015.4 |
| 20260504020456 | 61 | 172 | 1.0 | 1.0 | 0.00 | 0.00 | 0.00 | 54 | 1015.2 |
| 20260504015953 | 61 | 184 | 0.0 | 0.0 | 0.00 | 0.00 | 0.00 | 53 | 1015.4 |
| 20260504015449 | 61 | 92 | 2.0 | 2.0 | 0.00 | 0.00 | 0.00 | 53 | 1015.4 |
| 20260504014945 | 61 | 72 | 2.0 | 2.0 | 0.00 | 0.00 | 0.00 | 53 | 1015.2 |
| 20260504014441 | 61 | 179 | 1.0 | 1.0 | 0.00 | 0.00 | 0.00 | 54 | 1015.3 |
| 20260504013938 | 61 | 189 | 1.0 | 1.0 | 0.00 | 0.00 | 0.00 | 54 | 1015.3 |
| 20260504013437 | 61 | 182 | 0.0 | 1.0 | 0.00 | 0.00 | 0.00 | 54 | 1015.3 |
| 20260504012932 | 61 | 180 | 0.0 | 0.0 | 0.00 | 0.00 | 0.00 | 53 | 1015.5 |
| 20260504012431 | 62 | 180 | 0.0 | 0.0 | 0.00 | 0.00 | 0.00 | 52 | 1015.6 |
| 20260504011928 | 62 | 182 | 0.0 | 0.0 | 0.00 | 0.00 | 0.00 | 51 | 1015.6 |
| 20260504011425 | 62 | 193 | 0.0 | 0.0 | 0.00 | 0.00 | 0.00 | 50 | 1015.2 |
| 20260504010920 | 63 | 189 | 0.0 | 0.0 | 0.00 | 0.00 | 0.00 | 49 | 1015.2 |
| 20260504010416 | 63 | 184 | 0.0 | 1.0 | 0.00 | 0.00 | 0.00 | 48 | 1015.2 |
| 20260504005913 | 64 | 187 | 0.0 | 0.0 | 0.00 | 0.00 | 0.00 | 48 | 1015.3 |
| 20260504005409 | 64 | 157 | 3.0 | 5.0 | 0.00 | 0.00 | 0.00 | 47 | 1015.2 |
| 20260504004907 | 64 | 180 | 1.0 | 1.0 | 0.00 | 0.00 | 0.00 | 47 | 1015.0 |
| 20260504004405 | 64 | 185 | 0.0 | 1.0 | 0.00 | 0.00 | 0.00 | 46 | 1015.1 |
| 20260504003901 | 65 | 196 | 1.0 | 1.0 | 0.00 | 0.00 | 0.00 | 46 | 1015.2 |
| 20260504003358 | 65 | 145 | 3.0 | 3.0 | 0.00 | 0.00 | 0.00 | 45 | 1015.1 |
| 20260504002854 | 65 | 178 | 5.0 | 7.0 | 0.00 | 0.00 | 0.00 | 44 | 1015.0 |
| 20260504002351 | 66 | 156 | 5.0 | 7.0 | 0.00 | 0.00 | 0.00 | 44 | 1014.9 |
| 20260504001849 | 66 | 144 | 7.0 | 9.0 | 0.00 | 0.00 | 0.00 | 44 | 1014.8 |
| 20260504001346 | 66 | 148 | 5.0 | 8.0 | 0.00 | 0.00 | 0.00 | 43 | 1014.8 |
| 20260504000843 | 66 | 181 | 7.0 | 8.0 | 0.00 | 0.00 | 0.00 | 43 | 1014.8 |
| 20260504000340 | 66 | 137 | 8.0 | 10.0 | 0.00 | 0.00 | 0.00 | 43 | 1015.0 |
| 20260503235837 | 67 | 171 | 3.0 | 3.0 | 0.00 | 0.00 | 0.00 | 43 | 1014.8 |
| 20260503235335 | 67 | 148 | 7.0 | 8.0 | 0.00 | 0.00 | 0.00 | 42 | 1014.7 |
| 20260503234832 | 67 | 145 | 5.0 | 7.0 | 0.00 | 0.00 | 0.00 | 42 | 1014.8 |
| 20260503234330 | 68 | 99 | 4.0 | 5.0 | 0.00 | 0.00 | 0.00 | 42 | 1015.0 |
| 20260503233828 | 68 | 144 | 4.0 | 6.0 | 0.00 | 0.00 | 0.00 | 41 | 1014.9 |
| 20260503233323 | 68 | 203 | 6.0 | 8.0 | 0.00 | 0.00 | 0.00 | 40 | 1015.0 |
| 20260503232820 | 68 | 159 | 8.0 | 9.0 | 0.00 | 0.00 | 0.00 | 40 | 1014.8 |
| 20260503232317 | 68 | 160 | 8.0 | 10.0 | 0.00 | 0.00 | 0.00 | 40 | 1014.8 |
| 20260503231815 | 68 | 161 | 6.0 | 9.0 | 0.00 | 0.00 | 0.00 | 41 | 1014.9 |
| 20260503231312 | 68 | 191 | 6.0 | 8.0 | 0.00 | 0.00 | 0.00 | 41 | 1015.0 |
| 20260503230808 | 68 | 184 | 3.0 | 3.0 | 0.00 | 0.00 | 0.00 | 41 | 1015.3 |
| 20260503230305 | 68 | 168 | 5.0 | 7.0 | 0.00 | 0.00 | 0.00 | 40 | 1015.3 |
| 20260503225803 | 68 | 161 | 6.0 | 11.0 | 0.00 | 0.00 | 0.00 | 40 | 1015.6 |
| 20260503225258 | 69 | 147 | 6.0 | 9.0 | 0.00 | 0.00 | 0.00 | 40 | 1015.4 |
| 20260503224755 | 68 | 144 | 8.0 | 13.0 | 0.00 | 0.00 | 0.00 | 40 | 1015.4 |
| 20260503224252 | 69 | 143 | 5.0 | 9.0 | 0.00 | 0.00 | 0.00 | 40 | 1015.7 |
| 20260503223750 | 69 | 204 | 3.0 | 5.0 | 0.00 | 0.00 | 0.00 | 40 | 1015.6 |
| 20260503223247 | 69 | 120 | 6.0 | 8.0 | 0.00 | 0.00 | 0.00 | 39 | 1015.7 |
| 20260503222743 | 69 | 179 | 5.0 | 6.0 | 0.00 | 0.00 | 0.00 | 40 | 1015.7 |
| 20260503222241 | 69 | 118 | 6.0 | 9.0 | 0.00 | 0.00 | 0.00 | 40 | 1016.0 |
| 20260503221739 | 69 | 109 | 5.0 | 7.0 | 0.00 | 0.00 | 0.00 | 40 | 1016.1 |
| 20260503221237 | 69 | 148 | 11.0 | 16.0 | 0.00 | 0.00 | 0.00 | 39 | 1016.1 |
| 20260503220733 | 69 | 159 | 10.0 | 14.0 | 0.00 | 0.00 | 0.00 | 40 | 1016.3 |
| 20260503220230 | 68 | 142 | 7.0 | 10.0 | 0.00 | 0.00 | 0.00 | 40 | 1016.1 |
| 20260503215727 | 69 | 158 | 6.0 | 8.0 | 0.00 | 0.00 | 0.00 | 39 | 1016.2 |
| 20260503215224 | 69 | 174 | 4.0 | 6.0 | 0.00 | 0.00 | 0.00 | 41 | 1016.3 |
| 20260503214722 | 68 | 139 | 6.0 | 8.0 | 0.00 | 0.00 | 0.00 | 40 | 1016.4 |
| 20260503214218 | 68 | 202 | 6.0 | 10.0 | 0.00 | 0.00 | 0.00 | 40 | 1016.6 |
| 20260503213717 | 68 | 161 | 3.0 | 5.0 | 0.00 | 0.00 | 0.00 | 40 | 1016.6 |
| 20260503213214 | 68 | 238 | 3.0 | 6.0 | 0.00 | 0.00 | 0.00 | 40 | 1016.7 |
| 20260503212710 | 68 | 145 | 9.0 | 11.0 | 0.00 | 0.00 | 0.00 | 39 | 1016.9 |
| 20260503212208 | 69 | 185 | 10.0 | 13.0 | 0.00 | 0.00 | 0.00 | 39 | 1016.8 |
| 20260503211706 | 69 | 152 | 11.0 | 15.0 | 0.00 | 0.00 | 0.00 | 40 | 1017.0 |
| 20260503211201 | 68 | 128 | 3.0 | 5.0 | 0.00 | 0.00 | 0.00 | 41 | 1017.3 |
| 20260503210657 | 68 | 91 | 7.0 | 11.0 | 0.00 | 0.00 | 0.00 | 41 | 1017.4 |
| 20260503210155 | 68 | 132 | 5.0 | 7.0 | 0.00 | 0.00 | 0.00 | 40 | 1017.6 |
| 20260503205650 | 68 | 174 | 11.0 | 13.0 | 0.00 | 0.00 | 0.00 | 39 | 1017.5 |
| 20260503205146 | 68 | 147 | 6.0 | 8.0 | 0.00 | 0.00 | 0.00 | 41 | 1017.6 |
| 20260503204643 | 67 | 152 | 3.0 | 5.0 | 0.00 | 0.00 | 0.00 | 41 | 1017.8 |
| 20260503204141 | 68 | 158 | 4.0 | 6.0 | 0.00 | 0.00 | 0.00 | 41 | 1017.8 |
| 20260503203637 | 67 | 226 | 11.0 | 14.0 | 0.00 | 0.00 | 0.00 | 41 | 1018.2 |
| 20260503203135 | 67 | 198 | 10.0 | 11.0 | 0.00 | 0.00 | 0.00 | 40 | 1018.1 |
| 20260503202632 | 67 | 151 | 3.0 | 6.0 | 0.00 | 0.00 | 0.00 | 42 | 1018.4 |
| 20260503202130 | 67 | 185 | 5.0 | 8.0 | 0.00 | 0.00 | 0.00 | 42 | 1018.3 |
| 20260503201628 | 68 | 132 | 6.0 | 10.0 | 0.00 | 0.00 | 0.00 | 42 | 1018.7 |
| 20260503201125 | 67 | 160 | 7.0 | 9.0 | 0.00 | 0.00 | 0.00 | 42 | 1018.8 |
| 20260503200621 | 67 | 204 | 5.0 | 8.0 | 0.00 | 0.00 | 0.00 | 42 | 1018.8 |
| 20260503200118 | 67 | 136 | 6.0 | 11.0 | 0.00 | 0.00 | 0.00 | 43 | 1018.8 |
| 20260503195615 | 67 | 125 | 2.0 | 3.0 | 0.00 | 0.00 | 0.00 | 45 | 1018.8 |
| 20260503195112 | 67 | 152 | 12.0 | 14.0 | 0.00 | 0.00 | 0.00 | 43 | 1019.0 |
| 20260503194609 | 66 | 174 | 4.0 | 6.0 | 0.00 | 0.00 | 0.00 | 45 | 1019.2 |
| 20260503194103 | 67 | 152 | 6.0 | 8.0 | 0.00 | 0.00 | 0.00 | 43 | 1019.1 |
| 20260503193601 | 66 | 131 | 7.0 | 9.0 | 0.00 | 0.00 | 0.00 | 44 | 1019.4 |
| 20260503193056 | 67 | 176 | 4.0 | 8.0 | 0.00 | 0.00 | 0.00 | 44 | 1019.4 |
| 20260503192553 | 67 | 190 | 7.0 | 10.0 | 0.00 | 0.00 | 0.00 | 45 | 1019.4 |
| 20260503192049 | 67 | 122 | 7.0 | 11.0 | 0.00 | 0.00 | 0.00 | 42 | 1019.6 |
| 20260503191545 | 67 | 90 | 8.0 | 10.0 | 0.00 | 0.00 | 0.00 | 43 | 1019.9 |
| 20260503191042 | 66 | 167 | 6.0 | 7.0 | 0.00 | 0.00 | 0.00 | 44 | 1019.7 |
| 20260503190539 | 65 | 152 | 5.0 | 6.0 | 0.00 | 0.00 | 0.00 | 44 | 1019.7 |
| 20260503190037 | 67 | 97 | 8.0 | 10.0 | 0.00 | 0.00 | 0.00 | 43 | 1019.8 |
| 20260503185533 | 66 | 160 | 8.0 | 11.0 | 0.00 | 0.00 | 0.00 | 46 | 1020.2 |
| 20260503185032 | 66 | 107 | 6.0 | 9.0 | 0.00 | 0.00 | 0.00 | 45 | 1020.1 |
| 20260503184529 | 66 | 161 | 7.0 | 8.0 | 0.00 | 0.00 | 0.00 | 45 | 1020.3 |
| 20260503184025 | 66 | 193 | 7.0 | 10.0 | 0.00 | 0.00 | 0.00 | 44 | 1020.6 |
| 20260503183522 | 65 | 154 | 3.0 | 6.0 | 0.00 | 0.00 | 0.00 | 46 | 1020.6 |
| 20260503183020 | 65 | 175 | 6.0 | 8.0 | 0.00 | 0.00 | 0.00 | 47 | 1020.7 |
| 20260503182518 | 66 | 143 | 6.0 | 8.0 | 0.00 | 0.00 | 0.00 | 46 | 1020.6 |
| 20260503182015 | 65 | 174 | 5.0 | 7.0 | 0.00 | 0.00 | 0.00 | 46 | 1020.6 |
| 20260503181512 | 64 | 183 | 5.0 | 7.0 | 0.00 | 0.00 | 0.00 | 48 | 1020.7 |
| 20260503181008 | 64 | 131 | 11.0 | 14.0 | 0.00 | 0.00 | 0.00 | 47 | 1021.0 |
| 20260503180506 | 64 | 143 | 11.0 | 14.0 | 0.00 | 0.00 | 0.00 | 46 | 1021.3 |
| 20260503180002 | 63 | 135 | 7.0 | 11.0 | 0.00 | 0.00 | 0.00 | 48 | 1021.3 |
| 20260503175500 | 62 | 92 | 5.0 | 7.0 | 0.00 | 0.00 | 0.00 | 49 | 1021.4 |
| 20260503174957 | 64 | 189 | 4.0 | 5.0 | 0.00 | 0.00 | 0.00 | 47 | 1021.4 |
| 20260503174454 | 64 | 101 | 4.0 | 9.0 | 0.00 | 0.00 | 0.00 | 46 | 1021.7 |
| 20260503173949 | 64 | 193 | 2.0 | 3.0 | 0.00 | 0.00 | 0.00 | 48 | 1021.8 |
| 20260503173445 | 64 | 151 | 5.0 | 7.0 | 0.00 | 0.00 | 0.00 | 48 | 1021.9 |
| 20260503172942 | 64 | 144 | 3.0 | 5.0 | 0.00 | 0.00 | 0.00 | 48 | 1021.9 |
| 20260503172440 | 63 | 112 | 6.0 | 7.0 | 0.00 | 0.00 | 0.00 | 47 | 1022.0 |
| 20260503171936 | 63 | 106 | 5.0 | 7.0 | 0.00 | 0.00 | 0.00 | 47 | 1021.9 |
| 20260503171433 | 63 | 140 | 9.0 | 11.0 | 0.00 | 0.00 | 0.00 | 45 | 1022.0 |
| 20260503170931 | 63 | 153 | 3.0 | 5.0 | 0.00 | 0.00 | 0.00 | 46 | 1022.2 |
| 20260503170426 | 63 | 130 | 5.0 | 6.0 | 0.00 | 0.00 | 0.00 | 47 | 1022.1 |
| 20260503150819 | 59 | 132 | 4.0 | 5.0 | 0.00 | 0.00 | 0.00 | 51 | 1023.1 |
| 20260503150315 | 59 | 52 | 3.0 | 5.0 | 0.00 | 0.00 | 0.00 | 50 | 1023.1 |
| 20260503140239 | 55 | 161 | 2.0 | 3.0 | 0.00 | 0.00 | 0.00 | 65 | 1023.2 |
| 20260503131209 | 52 | 92 | 3.0 | 6.0 | 0.00 | 0.00 | 0.00 | 73 | 1023.2 |
| 20260503130707 | 51 | 155 | 1.0 | 2.0 | 0.00 | 0.00 | 0.00 | 76 | 1023.3 |
| 20260503130204 | 51 | 129 | 3.0 | 3.0 | 0.00 | 0.00 | 0.00 | 77 | 1023.3 |
| 20260503120129 | 42 | 188 | 1.0 | 1.0 | 0.00 | 0.00 | 0.00 | 96 | 1023.1 |
| 20260503110556 | 38 | 185 | 0.0 | 0.0 | 0.00 | 0.00 | 0.00 | 97 | 1022.7 |
| 20260503090444 | 39 | 190 | 0.0 | 0.0 | 0.00 | 0.00 | 0.00 | 96 | 1022.6 |